Time;durP1;ratioP1;P1;durP2;ratioP2;P2;SDS_P1;SDS_P2;PMS_P1;PMS_P2;Temp;Humidity;BMP_temperature;BMP_pressure;BME280_temperature;BME280_humidity;BME280_pressure;Samples;Min_cycle;Max_cycle;Signal;HPM_P1;HPM_P2
2023/11/24 00:03:10;;;;;;;9.33;2.63;;;;;10.20;101115.00;;;;10341659;28;20216;-73
2023/11/24 00:08:11;;;;;;;17.70;3.47;;;;;9.80;101128.00;;;;10336999;28;20223;-74
2023/11/24 00:13:12;;;;;;;22.90;3.93;;;;;9.50;101140.00;;;;10343715;28;20690;-72
2023/11/24 00:18:13;;;;;;;22.60;3.83;;;;;9.50;101122.00;;;;10323432;28;20234;-74
2023/11/24 00:23:15;;;;;;;18.10;3.27;;;;;9.50;101133.00;;;;10319668;28;20278;-74
2023/11/24 00:28:18;;;;;;;18.57;3.70;;;;;9.60;101132.00;;;;10340972;28;20238;-74
2023/11/24 00:33:20;;;;;;;17.17;3.43;;;;;9.70;101141.00;;;;10343946;28;20285;-74
2023/11/24 00:38:22;;;;;;;24.33;3.70;;;;;9.70;101138.00;;;;10336259;28;20254;-72
2023/11/24 00:43:25;;;;;;;12.87;2.37;;;;;9.80;101125.00;;;;10330461;28;20228;-72
2023/11/24 00:48:28;;;;;;;22.13;4.37;;;;;9.90;101127.00;;;;10331396;28;20239;-73
2023/11/24 00:53:29;;;;;;;16.70;3.87;;;;;9.90;101115.00;;;;10320797;28;20219;-73
2023/11/24 00:58:30;;;;;;;20.90;4.67;;;;;9.90;101114.00;;;;10333784;28;21089;-72
2023/11/24 01:03:31;;;;;;;21.80;4.10;;;;;9.90;101124.00;;;;10323121;28;20227;-73
2023/11/24 01:08:32;;;;;;;15.50;3.07;;;;;9.90;101118.00;;;;10324972;28;20250;-74
2023/11/24 01:13:35;;;;;;;20.07;3.33;;;;;9.80;101101.00;;;;10325017;28;20257;-72
2023/11/24 01:18:37;;;;;;;24.27;3.60;;;;;9.80;101126.00;;;;10320544;28;20226;-73
2023/11/24 01:23:39;;;;;;;22.67;3.70;;;;;9.80;101102.00;;;;10338662;28;20231;-73
2023/11/24 01:28:40;;;;;;;19.53;4.50;;;;;9.70;101099.00;;;;10340264;28;20238;-74
2023/11/24 01:33:41;;;;;;;27.63;4.27;;;;;9.70;101080.00;;;;10339173;28;20580;-73
2023/11/24 01:38:43;;;;;;;23.40;3.83;;;;;9.60;101085.00;;;;10335495;28;20234;-72
2023/11/24 01:43:58;;;;;;;18.17;3.20;;;;;9.50;101085.00;;;;10339032;28;20235;-72
2023/11/24 01:49:00;;;;;;;19.93;3.40;;;;;9.50;101094.00;;;;10326349;28;20222;-73
2023/11/24 01:54:02;;;;;;;19.40;3.57;;;;;9.50;101074.00;;;;10317966;28;20222;-73
2023/11/24 01:59:04;;;;;;;16.07;3.27;;;;;9.50;101089.00;;;;10323384;28;20223;-73
2023/11/24 02:04:05;;;;;;;11.67;3.13;;;;;9.50;101114.00;;;;10320663;28;20225;-73
2023/11/24 02:09:09;;;;;;;18.77;3.17;;;;;9.40;101104.00;;;;10321600;28;21835;-71
2023/11/24 02:14:10;;;;;;;17.03;3.00;;;;;8.80;101087.00;;;;10316743;28;20295;-72
2023/11/24 02:19:14;;;;;;;19.87;3.33;;;;;8.60;101071.00;;;;10316423;28;21068;-73
2023/11/24 02:24:15;;;;;;;12.50;3.23;;;;;8.50;101078.00;;;;10335240;28;20263;-72
2023/11/24 02:29:16;;;;;;;12.70;2.40;;;;;8.50;101085.00;;;;10307507;28;20220;-73
2023/11/24 02:34:18;;;;;;;12.97;2.40;;;;;8.60;101085.00;;;;10323707;28;20238;-73
2023/11/24 02:39:19;;;;;;;7.73;2.80;;;;;8.50;101087.00;;;;10327519;28;20218;-73
2023/11/24 02:44:20;;;;;;;9.97;2.53;;;;;8.50;101095.00;;;;10355035;28;20235;-72
2023/11/24 02:49:22;;;;;;;15.70;2.10;;;;;8.50;101083.00;;;;10332959;28;20223;-73
2023/11/24 02:54:23;;;;;;;19.83;3.07;;;;;8.50;101081.00;;;;10346185;28;20294;-73
2023/11/24 02:59:24;;;;;;;14.13;2.57;;;;;8.40;101065.00;;;;10342609;28;20307;-72
2023/11/24 03:04:27;;;;;;;11.47;2.23;;;;;8.20;101061.00;;;;10342829;28;20226;-73
2023/11/24 03:09:28;;;;;;;18.23;4.30;;;;;8.10;101055.00;;;;10342128;28;20230;-73
2023/11/24 03:14:29;;;;;;;16.00;2.97;;;;;7.90;101040.00;;;;10339859;28;20281;-72
2023/11/24 03:19:31;;;;;;;14.57;3.10;;;;;7.80;101031.00;;;;10346192;28;20220;-72
2023/11/24 03:24:32;;;;;;;17.20;3.37;;;;;7.90;101038.00;;;;10343513;28;20232;-72
2023/11/24 03:29:36;;;;;;;18.67;3.67;;;;;8.00;101046.00;;;;10345035;28;20342;-72
2023/11/24 03:34:37;;;;;;;13.77;3.57;;;;;7.90;101030.00;;;;10326652;28;20281;-72
2023/11/24 03:39:38;;;;;;;18.03;2.63;;;;;7.90;101025.00;;;;10341073;28;20300;-72
2023/11/24 03:44:39;;;;;;;21.13;4.10;;;;;8.00;101030.00;;;;10322794;28;20242;-72
2023/11/24 03:49:41;;;;;;;14.33;3.60;;;;;7.90;101023.00;;;;10343498;28;20265;-72
2023/11/24 03:54:42;;;;;;;17.77;3.20;;;;;7.80;101019.00;;;;10322890;28;20658;-73
2023/11/24 03:59:43;;;;;;;15.17;2.83;;;;;7.80;101014.00;;;;10339069;28;20233;-72
2023/11/24 04:04:46;;;;;;;17.10;3.53;;;;;7.90;101006.00;;;;10345098;28;20786;-72
2023/11/24 04:09:47;;;;;;;18.90;3.27;;;;;7.90;101016.00;;;;10344942;28;20267;-73
2023/11/24 04:14:49;;;;;;;15.13;3.60;;;;;7.90;101013.00;;;;10340830;28;20234;-72
2023/11/24 04:19:50;;;;;;;22.30;3.60;;;;;7.80;101030.00;;;;10347995;28;20227;-73
2023/11/24 04:24:51;;;;;;;11.43;2.93;;;;;7.70;101026.00;;;;10355169;28;20314;-72
2023/11/24 04:29:52;;;;;;;12.53;2.80;;;;;7.60;101020.00;;;;10341275;28;20427;-71
2023/11/24 04:34:53;;;;;;;14.83;2.30;;;;;7.60;101010.00;;;;10342163;28;20293;-72
2023/11/24 04:39:55;;;;;;;17.33;2.80;;;;;7.60;101015.00;;;;10340707;28;20219;-72
2023/11/24 04:44:57;;;;;;;13.87;2.77;;;;;7.70;101021.00;;;;10341333;28;20228;-72
2023/11/24 04:49:58;;;;;;;13.07;2.40;;;;;7.70;101015.00;;;;10327718;28;20219;-73
2023/11/24 04:54:59;;;;;;;9.67;2.27;;;;;7.40;101015.00;;;;10342798;28;20230;-72
2023/11/24 05:00:00;;;;;;;13.47;1.90;;;;;7.30;101002.00;;;;10340821;28;20862;-72
2023/11/24 05:05:02;;;;;;;11.00;2.20;;;;;7.30;101003.00;;;;10340271;28;20226;-73
2023/11/24 05:10:04;;;;;;;9.63;1.93;;;;;7.30;101012.00;;;;10340355;28;20227;-72
2023/11/24 05:15:07;;;;;;;6.87;1.90;;;;;7.30;101009.00;;;;10342542;28;20628;-71
2023/11/24 05:20:12;;;;;;;11.33;2.43;;;;;7.30;100998.00;;;;10326791;28;20230;-72
2023/11/24 05:25:13;;;;;;;12.87;2.70;;;;;7.30;100982.00;;;;10337554;28;20782;-71
2023/11/24 05:30:15;;;;;;;10.33;2.00;;;;;7.20;100975.00;;;;10340205;28;20238;-73
2023/11/24 05:35:17;;;;;;;8.70;2.10;;;;;7.10;100973.00;;;;10338356;28;21263;-72
2023/11/24 05:40:18;;;;;;;14.23;2.37;;;;;7.00;100969.00;;;;10339245;28;20222;-72
2023/11/24 05:45:19;;;;;;;9.37;2.20;;;;;6.90;100960.00;;;;10339328;28;20297;-71
2023/11/24 05:50:22;;;;;;;15.97;2.43;;;;;6.90;100952.00;;;;10334807;28;20223;-72
2023/11/24 05:55:23;;;;;;;13.33;2.90;;;;;6.90;100943.00;;;;10318070;28;20319;-72
2023/11/24 06:00:25;;;;;;;14.37;2.77;;;;;7.00;100944.00;;;;10340263;28;20223;-72
2023/11/24 06:05:26;;;;;;;14.97;3.27;;;;;7.00;100937.00;;;;10335028;28;20913;-72
2023/11/24 06:10:27;;;;;;;18.33;2.87;;;;;7.10;100939.00;;;;10331804;28;20219;-73
2023/11/24 06:15:28;;;;;;;14.13;2.97;;;;;7.20;100939.00;;;;10337703;28;21822;-71
2023/11/24 06:20:30;;;;;;;15.73;3.00;;;;;7.20;100953.00;;;;10332501;28;20235;-71
2023/11/24 06:25:31;;;;;;;20.07;3.13;;;;;7.20;100951.00;;;;10338136;28;20301;-72
2023/11/24 06:30:32;;;;;;;9.03;2.30;;;;;7.20;100961.00;;;;10340170;28;20222;-71
2023/11/24 06:35:33;;;;;;;16.70;2.80;;;;;7.10;100948.00;;;;10339329;28;20222;-72
2023/11/24 06:40:34;;;;;;;13.57;3.93;;;;;7.00;100953.00;;;;10341290;28;20586;-72
2023/11/24 06:45:36;;;;;;;16.03;3.33;;;;;7.10;100953.00;;;;10340786;28;20814;-71
2023/11/24 06:50:37;;;;;;;15.23;3.10;;;;;7.00;100930.00;;;;10330086;28;20220;-73
2023/11/24 06:55:38;;;;;;;18.27;2.80;;;;;6.80;100946.00;;;;10339820;28;20295;-72
2023/11/24 07:00:39;;;;;;;20.27;3.33;;;;;6.80;100934.00;;;;10339353;28;21122;-73
2023/11/24 07:05:41;;;;;;;18.37;3.87;;;;;6.80;100937.00;;;;10339439;28;20227;-73
2023/11/24 07:10:43;;;;;;;15.43;3.27;;;;;6.80;100935.00;;;;10337134;28;20231;-73
2023/11/24 07:15:44;;;;;;;18.60;3.07;;;;;6.90;100957.00;;;;10336166;28;20224;-72
2023/11/24 07:20:46;;;;;;;26.23;4.57;;;;;7.00;100943.00;;;;10336440;28;20948;-73
2023/11/24 07:25:51;;;;;;;18.87;4.23;;;;;7.00;100948.00;;;;10342940;28;20733;-71
2023/11/24 07:30:53;;;;;;;19.57;3.97;;;;;7.00;100939.00;;;;10348472;28;20235;-71
2023/11/24 07:35:54;;;;;;;21.73;3.80;;;;;6.90;100945.00;;;;10342077;28;20231;-71
2023/11/24 07:40:56;;;;;;;15.57;3.30;;;;;6.70;100953.00;;;;10348336;28;20235;-72
2023/11/24 07:45:57;;;;;;;12.37;3.00;;;;;6.60;100947.00;;;;10345291;28;20297;-73
2023/11/24 07:50:58;;;;;;;15.57;2.87;;;;;6.60;100961.00;;;;10343635;28;20573;-71
2023/11/24 07:56:00;;;;;;;13.73;2.00;;;;;6.50;100946.00;;;;10343960;28;21145;-73
2023/11/24 08:01:02;;;;;;;14.43;1.97;;;;;6.40;100943.00;;;;10321319;28;20246;-72
2023/11/24 08:06:08;;;;;;;11.23;3.20;;;;;6.40;100934.00;;;;10332796;28;20219;-71
2023/11/24 08:11:09;;;;;;;12.60;2.43;;;;;6.40;100945.00;;;;10319324;28;20277;-74
2023/11/24 08:16:12;;;;;;;9.47;1.90;;;;;6.40;100929.00;;;;10333295;28;20250;-70
2023/11/24 08:21:13;;;;;;;9.53;1.77;;;;;6.40;100937.00;;;;10322457;28;20313;-72
2023/11/24 08:26:15;;;;;;;8.40;1.87;;;;;6.40;100930.00;;;;10339094;28;20905;-71
2023/11/24 08:31:19;;;;;;;13.07;2.00;;;;;6.40;100931.00;;;;10336877;28;20224;-72
2023/11/24 08:36:20;;;;;;;7.00;3.07;;;;;6.60;100924.00;;;;10348034;28;20223;-71
2023/11/24 08:41:22;;;;;;;12.77;1.77;;;;;6.50;100907.00;;;;10343399;28;20319;-73
2023/11/24 08:46:38;;;;;;;11.80;2.00;;;;;6.30;100898.00;;;;10322339;28;20649;-71
2023/11/24 08:51:40;;;;;;;9.03;1.77;;;;;6.30;100917.00;;;;10336332;28;20306;-71
2023/11/24 08:56:41;;;;;;;12.00;2.50;;;;;6.30;100906.00;;;;10343425;28;20229;-70
2023/11/24 09:01:42;;;;;;;7.33;1.60;;;;;6.30;100913.00;;;;10337771;28;20736;-73
2023/11/24 09:06:43;;;;;;;10.90;1.47;;;;;6.30;100900.00;;;;10343228;28;20690;-71
2023/11/24 09:11:45;;;;;;;7.00;1.50;;;;;6.30;100887.00;;;;10342144;28;20273;-72
2023/11/24 09:16:46;;;;;;;6.57;1.57;;;;;6.30;100882.00;;;;10343078;28;20234;-71
2023/11/24 09:21:48;;;;;;;4.53;1.77;;;;;6.10;100900.00;;;;10338025;28;20250;-71
2023/11/24 09:26:49;;;;;;;9.90;1.57;;;;;6.10;100889.00;;;;10337776;28;20223;-71
2023/11/24 09:31:50;;;;;;;3.87;1.07;;;;;6.00;100889.00;;;;10337412;28;21019;-72
2023/11/24 09:36:51;;;;;;;5.83;1.50;;;;;6.10;100892.00;;;;10338252;28;20305;-71
2023/11/24 09:41:54;;;;;;;4.03;1.00;;;;;6.10;100880.00;;;;10337190;28;20227;-72
2023/11/24 09:46:57;;;;;;;3.67;1.10;;;;;6.00;100869.00;;;;10339974;28;20230;-73
2023/11/24 09:51:59;;;;;;;1.73;1.03;;;;;6.00;100863.00;;;;10337106;28;20271;-73
2023/11/24 09:57:01;;;;;;;3.00;0.80;;;;;6.10;100866.00;;;;10335527;28;20224;-73
2023/11/24 10:02:02;;;;;;;7.07;2.00;;;;;6.40;100865.00;;;;10337525;28;20362;-72
2023/11/24 10:07:19;;;;;;;3.43;1.43;;;;;6.20;100881.00;;;;10330835;28;20315;-72
2023/11/24 10:12:22;;;;;;;4.43;1.10;;;;;6.10;100887.00;;;;10336051;28;20231;-71
2023/11/24 10:17:23;;;;;;;4.60;1.23;;;;;6.00;100883.00;;;;10337944;28;20227;-73
2023/11/24 10:22:27;;;;;;;9.17;1.60;;;;;6.00;100868.00;;;;10333900;28;20227;-71
2023/11/24 10:27:28;;;;;;;6.07;0.90;;;;;5.90;100871.00;;;;10336340;28;20317;-71
2023/11/24 10:32:29;;;;;;;4.93;1.30;;;;;5.90;100878.00;;;;10335958;28;20255;-71
2023/11/24 10:37:33;;;;;;;2.90;0.87;;;;;5.90;100861.00;;;;10338680;28;20239;-71
2023/11/24 10:42:35;;;;;;;6.60;1.33;;;;;6.00;100864.00;;;;10338249;28;20357;-71
2023/11/24 10:47:45;;;;;;;6.13;1.03;;;;;6.40;100852.00;;;;10337342;28;20255;-71
2023/11/24 10:52:56;;;;;;;1.83;1.00;;;;;6.60;100829.00;;;;10336001;28;20595;-71
2023/11/24 10:57:57;;;;;;;7.97;1.70;;;;;7.10;100826.00;;;;10334069;28;20326;-72
2023/11/24 11:02:58;;;;;;;3.07;0.93;;;;;6.70;100829.00;;;;10339526;28;20334;-73
2023/11/24 11:08:13;;;;;;;6.53;1.90;;;;;6.40;100837.00;;;;10342746;28;20220;-73
2023/11/24 11:13:15;;;;;;;8.00;1.57;;;;;6.20;100830.00;;;;10337555;28;20234;-73
2023/11/24 11:18:25;;;;;;;7.33;2.23;;;;;6.20;100827.00;;;;10336547;28;20269;-71
2023/11/24 11:23:26;;;;;;;4.07;1.57;;;;;6.00;100851.00;;;;10336523;28;20231;-70
2023/11/24 11:28:34;;;;;;;5.53;1.10;;;;;5.90;100833.00;;;;10338475;28;20232;-71
2023/11/24 11:33:35;;;;;;;3.80;0.93;;;;;5.60;100810.00;;;;10336343;28;20219;-72
2023/11/24 11:38:40;;;;;;;7.83;1.50;;;;;5.60;100843.00;;;;10335309;28;20250;-71
2023/11/24 11:43:55;;;;;;;5.13;1.70;;;;;6.00;100844.00;;;;10342003;28;20302;-74
2023/11/24 11:48:57;;;;;;;9.83;1.70;;;;;6.20;100832.00;;;;10339849;28;20230;-72
2023/11/24 11:53:59;;;;;;;9.70;1.73;;;;;6.30;100819.00;;;;10330703;28;20630;-73
2023/11/24 11:59:01;;;;;;;7.37;1.47;;;;;6.40;100801.00;;;;10335142;28;20277;-72
2023/11/24 12:04:03;;;;;;;4.87;1.33;;;;;6.70;100787.00;;;;10301718;28;20251;-71
2023/11/24 12:09:08;;;;;;;8.03;1.87;;;;;6.60;100769.00;;;;10329081;28;20224;-72
2023/11/24 12:14:12;;;;;;;8.67;1.63;;;;;6.50;100769.00;;;;10338297;28;20288;-73
2023/11/24 12:19:14;;;;;;;7.17;1.30;;;;;6.50;100761.00;;;;10322460;28;20227;-73
2023/11/24 12:24:16;;;;;;;11.23;2.67;;;;;6.50;100762.00;;;;10339319;28;20302;-72
2023/11/24 12:29:18;;;;;;;18.63;2.63;;;;;6.80;100752.00;;;;10337361;28;20238;-73
2023/11/24 12:34:24;;;;;;;18.10;2.47;;;;;6.90;100746.00;;;;10337648;28;20219;-72
2023/11/24 12:39:33;;;;;;;16.20;1.87;;;;;8.20;100751.00;;;;10338274;28;20223;-73
2023/11/24 12:44:36;;;;;;;4.47;1.70;;;;;7.90;100747.00;;;;10335849;28;20228;-73
2023/11/24 12:50:12;;;;;;;12.27;1.97;;;;;7.70;100740.00;;;;10335141;28;20606;-73
2023/11/24 12:55:13;;;;;;;9.03;1.57;;;;;7.10;100751.00;;;;10333758;28;20238;-74
2023/11/24 13:00:16;;;;;;;9.93;1.63;;;;;6.90;100744.00;;;;10329128;28;20327;-73
2023/11/24 13:05:18;;;;;;;5.40;1.67;;;;;6.70;100758.00;;;;10299790;28;20904;-72
2023/11/24 13:10:20;;;;;;;8.83;2.00;;;;;6.70;100734.00;;;;10315366;28;20788;-73
2023/11/24 13:15:21;;;;;;;13.90;2.67;;;;;6.80;100736.00;;;;10329220;28;20333;-72
2023/11/24 13:20:28;;;;;;;16.30;3.73;;;;;6.90;100751.00;;;;10320593;28;20337;-72
2023/11/24 13:25:30;;;;;;;11.47;2.17;;;;;7.20;100731.00;;;;10304087;28;20224;-74
2023/11/24 13:30:33;;;;;;;7.80;1.83;;;;;7.20;100746.00;;;;10313643;28;20219;-71
2023/11/24 13:35:34;;;;;;;6.13;1.53;;;;;7.20;100745.00;;;;10329430;28;20223;-73
2023/11/24 13:40:35;;;;;;;11.63;1.60;;;;;7.10;100749.00;;;;10332083;28;20310;-72
2023/11/24 13:45:36;;;;;;;12.80;2.50;;;;;7.10;100767.00;;;;10320435;28;20237;-73
2023/11/24 13:50:39;;;;;;;7.83;1.83;;;;;7.40;100790.00;;;;10328317;28;20239;-73
2023/11/24 13:55:43;;;;;;;11.87;2.00;;;;;6.40;100764.00;;;;10336819;28;20231;-72
2023/11/24 14:00:45;;;;;;;8.47;1.60;;;;;6.40;100757.00;;;;10333782;28;20219;-73
2023/11/24 14:05:51;;;;;;;8.93;1.67;;;;;6.50;100750.00;;;;10327994;28;20230;-72
2023/11/24 14:10:52;;;;;;;6.03;1.40;;;;;6.50;100755.00;;;;10334865;28;20223;-73
2023/11/24 14:15:54;;;;;;;6.90;2.07;;;;;6.50;100765.00;;;;10307223;28;20231;-72
2023/11/24 14:20:56;;;;;;;13.93;2.53;;;;;6.60;100764.00;;;;10313063;28;20231;-72
2023/11/24 14:25:58;;;;;;;6.73;2.00;;;;;7.10;100766.00;;;;10315836;28;20285;-72
2023/11/24 14:31:00;;;;;;;11.07;2.77;;;;;6.80;100795.00;;;;10322596;28;20242;-73
2023/11/24 14:36:02;;;;;;;8.10;1.83;;;;;6.30;100770.00;;;;10331703;28;20230;-72
2023/11/24 14:41:07;;;;;;;7.57;1.97;;;;;6.00;100762.00;;;;10337884;28;20227;-73
2023/11/24 14:46:09;;;;;;;5.30;1.70;;;;;5.90;100762.00;;;;10332873;28;20262;-73
2023/11/24 14:51:12;;;;;;;9.73;1.70;;;;;5.90;100744.00;;;;10337544;28;20867;-72
2023/11/24 14:56:15;;;;;;;6.63;2.00;;;;;6.20;100769.00;;;;10327072;28;20284;-73
2023/11/24 15:01:22;;;;;;;7.80;1.53;;;;;6.10;100790.00;;;;10329886;28;21224;-73
2023/11/24 15:06:25;;;;;;;4.50;1.50;;;;;5.60;100789.00;;;;10317122;28;20771;-72
2023/11/24 15:11:45;;;;;;;12.10;2.60;;;;;5.10;100762.00;;;;10332432;28;20624;-70
2023/11/24 15:16:57;;;;;;;6.30;1.27;;;;;4.80;100739.00;;;;10334620;28;20263;-71
2023/11/24 15:22:04;;;;;;;6.20;1.70;;;;;4.70;100731.00;;;;10329439;28;20230;-72
2023/11/24 15:27:07;;;;;;;8.10;2.00;;;;;4.70;100733.00;;;;10317118;28;20223;-71
2023/11/24 15:32:13;;;;;;;9.70;1.70;;;;;5.00;100746.00;;;;10335757;28;20231;-73
2023/11/24 15:37:14;;;;;;;9.60;1.43;;;;;4.90;100741.00;;;;10326173;28;20227;-73
2023/11/24 15:42:17;;;;;;;12.43;2.10;;;;;4.90;100754.00;;;;10331710;28;20277;-72
2023/11/24 15:47:18;;;;;;;6.17;1.70;;;;;4.80;100752.00;;;;10325136;28;20228;-72
2023/11/24 15:52:19;;;;;;;11.50;2.33;;;;;4.80;100772.00;;;;10333657;28;20321;-71
2023/11/24 15:57:22;;;;;;;3.93;1.63;;;;;4.80;100788.00;;;;10312166;28;20694;-71
2023/11/24 16:02:26;;;;;;;12.47;1.80;;;;;4.70;100789.00;;;;10296996;28;20357;-73
2023/11/24 16:07:32;;;;;;;4.17;1.53;;;;;4.60;100788.00;;;;10334223;28;20585;-74
2023/11/24 16:12:33;;;;;;;13.60;2.00;;;;;4.60;100797.00;;;;10329299;28;20231;-83
2023/11/24 16:17:34;;;;;;;5.27;1.60;;;;;4.60;100790.00;;;;10295822;28;20246;-78
2023/11/24 16:22:36;;;;;;;10.53;2.07;;;;;4.60;100787.00;;;;10320324;28;20834;-79
2023/11/24 16:27:37;;;;;;;7.97;2.07;;;;;4.60;100788.00;;;;10321891;28;20678;-77
2023/11/24 16:32:42;;;;;;;11.93;1.70;;;;;4.60;100832.00;;;;10292066;28;20258;-79
2023/11/24 16:37:43;;;;;;;10.03;1.60;;;;;4.60;100853.00;;;;10310424;28;20250;-78
2023/11/24 16:42:45;;;;;;;8.50;1.90;;;;;4.50;100828.00;;;;10340740;28;20307;-79
2023/11/24 16:47:46;;;;;;;9.20;2.70;;;;;4.40;100828.00;;;;10308898;28;20301;-78
2023/11/24 16:52:50;;;;;;;17.63;3.23;;;;;4.40;100813.00;;;;10304865;28;20255;-80
2023/11/24 16:57:51;;;;;;;7.30;1.97;;;;;4.30;100822.00;;;;10314835;28;20310;-79
2023/11/24 17:02:52;;;;;;;12.67;2.00;;;;;4.40;100832.00;;;;10305154;28;20242;-79
2023/11/24 17:07:54;;;;;;;19.37;2.80;;;;;4.40;100810.00;;;;10305631;28;20799;-79
2023/11/24 17:12:56;;;;;;;13.03;2.73;;;;;4.40;100832.00;;;;10312296;28;20219;-79
2023/11/24 17:17:57;;;;;;;7.33;2.40;;;;;4.50;100824.00;;;;10311839;28;20266;-77
2023/11/24 17:22:58;;;;;;;4.37;1.43;;;;;4.50;100811.00;;;;10336993;28;20231;-79
2023/11/24 17:27:59;;;;;;;4.23;1.50;;;;;4.40;100802.00;;;;10320282;28;20235;-76
2023/11/24 17:33:01;;;;;;;6.97;1.20;;;;;4.40;100810.00;;;;10324177;28;20261;-78
2023/11/24 17:38:02;;;;;;;10.27;1.90;;;;;4.40;100803.00;;;;10326185;28;20227;-79
2023/11/24 17:43:04;;;;;;;7.23;1.93;;;;;4.50;100789.00;;;;10341727;28;20226;-77
2023/11/24 17:48:08;;;;;;;8.73;2.10;;;;;4.50;100782.00;;;;10323101;28;20262;-78
2023/11/24 17:53:09;;;;;;;8.23;1.97;;;;;4.50;100859.00;;;;10319006;28;20362;-78
2023/11/24 17:58:10;;;;;;;5.13;1.13;;;;;4.30;100829.00;;;;10337565;28;20627;-78
2023/11/24 18:03:12;;;;;;;9.53;2.00;;;;;4.20;100837.00;;;;10319633;28;20801;-78
2023/11/24 18:08:15;;;;;;;8.80;1.53;;;;;4.30;100829.00;;;;10333703;28;20223;-78
2023/11/24 18:13:16;;;;;;;5.17;1.43;;;;;4.30;100826.00;;;;10324058;28;20609;-78
2023/11/24 18:18:18;;;;;;;7.23;1.60;;;;;4.30;100814.00;;;;10302553;28;20291;-79
2023/11/24 18:23:19;;;;;;;11.50;1.80;;;;;4.30;100823.00;;;;10333854;28;20223;-79
2023/11/24 18:28:20;;;;;;;8.57;1.67;;;;;4.30;100824.00;;;;10317271;28;20227;-77
2023/11/24 18:33:21;;;;;;;7.47;2.13;;;;;4.30;100811.00;;;;10335296;28;20224;-80
2023/11/24 18:38:27;;;;;;;8.07;2.53;;;;;4.20;100811.00;;;;10336734;28;20722;-79
2023/11/24 18:43:28;;;;;;;11.73;2.20;;;;;4.20;100815.00;;;;10345398;28;20231;-79
2023/11/24 18:48:40;;;;;;;11.80;2.13;;;;;4.20;100810.00;;;;10318550;28;20219;-80
2023/11/24 18:53:41;;;;;;;19.23;3.00;;;;;4.10;100807.00;;;;10312659;28;20211;-79
2023/11/24 18:58:42;;;;;;;20.13;3.20;;;;;4.20;100796.00;;;;10303753;28;20264;-79
2023/11/24 19:03:43;;;;;;;16.00;2.80;;;;;4.10;100797.00;;;;10297100;28;20231;-78
2023/11/24 19:08:46;;;;;;;13.10;3.23;;;;;4.00;100793.00;;;;10303319;28;20254;-79
2023/11/24 19:13:47;;;;;;;14.77;4.23;;;;;3.90;100786.00;;;;10321069;28;20313;-81
2023/11/24 19:18:48;;;;;;;14.67;3.83;;;;;3.90;100784.00;;;;10323906;28;20223;-80
2023/11/24 19:23:50;;;;;;;15.47;3.83;;;;;4.00;100797.00;;;;10331430;28;20224;-79
2023/11/24 19:28:51;;;;;;;20.03;3.87;;;;;4.20;100790.00;;;;10313965;28;20732;-80
2023/11/24 19:34:07;;;;;;;17.47;3.50;;;;;4.30;100782.00;;;;10302040;28;20216;-79
2023/11/24 19:39:10;;;;;;;15.20;2.83;;;;;4.40;100778.00;;;;10305747;28;20230;-80
2023/11/24 19:44:13;;;;;;;16.03;2.80;;;;;4.50;100785.00;;;;10329689;28;20233;-78
2023/11/24 19:49:14;;;;;;;14.17;3.60;;;;;4.50;100784.00;;;;10311473;28;20224;-79
2023/11/24 19:54:16;;;;;;;12.70;3.50;;;;;4.40;100776.00;;;;10309934;28;20832;-79
2023/11/24 19:59:17;;;;;;;18.90;3.80;;;;;4.30;100786.00;;;;10294705;28;22128;-78
2023/11/24 20:04:19;;;;;;;18.43;3.20;;;;;4.40;100793.00;;;;10306104;28;20309;-79
2023/11/24 20:09:20;;;;;;;14.23;3.00;;;;;4.40;100793.00;;;;10319191;28;20826;-80
2023/11/24 20:14:21;;;;;;;18.07;2.80;;;;;4.50;100795.00;;;;10276136;28;20270;-79
2023/11/24 20:19:22;;;;;;;10.13;2.37;;;;;4.60;100806.00;;;;10307908;28;20227;-79
2023/11/24 20:24:25;;;;;;;10.50;2.73;;;;;4.70;100809.00;;;;10318737;28;20219;-80
2023/11/24 20:29:27;;;;;;;16.87;3.07;;;;;4.70;100803.00;;;;10313513;28;20712;-79
2023/11/24 20:34:28;;;;;;;12.60;1.87;;;;;4.70;100811.00;;;;10311951;28;20218;-79
2023/11/24 20:39:29;;;;;;;19.53;2.97;;;;;4.70;100807.00;;;;10319640;28;20254;-80
2023/11/24 20:44:32;;;;;;;12.40;2.50;;;;;4.70;100800.00;;;;10306227;28;20227;-79
2023/11/24 20:49:35;;;;;;;11.50;2.10;;;;;4.70;100810.00;;;;10317971;28;20231;-80
2023/11/24 20:54:37;;;;;;;21.43;2.50;;;;;4.70;100818.00;;;;10328949;28;20227;-80
2023/11/24 20:59:38;;;;;;;10.53;2.70;;;;;4.80;100811.00;;;;10321095;28;20212;-81
2023/11/24 21:04:40;;;;;;;12.37;3.47;;;;;5.00;100819.00;;;;10338208;28;20216;-81
2023/11/24 21:09:41;;;;;;;14.93;3.20;;;;;5.20;100833.00;;;;10327243;28;20220;-80
2023/11/24 21:14:42;;;;;;;11.33;2.87;;;;;5.30;100844.00;;;;10302624;28;20587;-81
2023/11/24 21:19:43;;;;;;;16.37;2.83;;;;;5.30;100834.00;;;;10289239;28;20224;-80
2023/11/24 21:24:45;;;;;;;13.53;2.40;;;;;5.30;100836.00;;;;10307818;28;20266;-79
2023/11/24 21:29:46;;;;;;;17.17;2.83;;;;;5.30;100849.00;;;;10321833;28;20242;-80
2023/11/24 21:34:58;;;;;;;13.53;2.60;;;;;5.30;100844.00;;;;10190740;28;20812;-81
2023/11/24 21:40:10;;;;;;;12.17;2.17;;;;;5.20;100864.00;;;;10276695;28;20781;-80
2023/11/24 21:45:15;;;;;;;20.07;3.03;;;;;5.20;100852.00;;;;10323203;28;20223;-80
2023/11/24 21:50:18;;;;;;;14.17;2.50;;;;;5.20;100855.00;;;;10341828;28;20294;-83
2023/11/24 21:56:29;;;;;;;8.87;1.73;;;;;5.10;100849.00;;;;10208504;28;20232;-81
2023/11/24 22:01:31;;;;;;;17.33;2.63;;;;;5.00;100865.00;;;;10275043;28;20220;-81
2023/11/24 22:06:36;;;;;;;11.00;1.60;;;;;4.90;100867.00;;;;10308445;28;20231;-81
2023/11/24 22:11:39;;;;;;;9.87;2.20;;;;;4.80;100863.00;;;;10321166;28;20230;-80
2023/11/24 22:16:41;;;;;;;8.53;1.50;;;;;4.70;100853.00;;;;10323079;28;20235;-81
2023/11/24 22:21:46;;;;;;;8.63;1.73;;;;;4.70;100862.00;;;;10336591;28;20223;-82
2023/11/24 22:26:50;;;;;;;10.17;1.83;;;;;4.60;100861.00;;;;10305885;28;20235;-80
2023/11/24 22:31:52;;;;;;;7.33;2.10;;;;;4.40;100867.00;;;;10317469;28;20273;-79
2023/11/24 22:36:54;;;;;;;9.67;2.60;;;;;4.30;100866.00;;;;10331828;28;20254;-79
2023/11/24 22:41:56;;;;;;;10.53;1.87;;;;;4.30;100849.00;;;;10321937;28;20203;-79
2023/11/24 22:46:57;;;;;;;8.20;2.20;;;;;4.50;100865.00;;;;10322982;28;20952;-79
2023/11/24 22:51:59;;;;;;;13.60;1.93;;;;;4.60;100877.00;;;;10323555;28;20227;-79
2023/11/24 22:57:01;;;;;;;11.10;2.10;;;;;4.60;100881.00;;;;10315913;28;20238;-80
2023/11/24 23:02:04;;;;;;;10.97;2.73;;;;;4.70;100878.00;;;;10343652;28;20215;-80
2023/11/24 23:07:05;;;;;;;8.37;2.17;;;;;4.70;100890.00;;;;10326515;28;20227;-79
2023/11/24 23:12:09;;;;;;;9.27;1.83;;;;;4.70;100891.00;;;;10315339;28;20219;-79
2023/11/24 23:17:10;;;;;;;12.20;2.50;;;;;4.80;100906.00;;;;10328909;28;20306;-81
2023/11/24 23:22:12;;;;;;;14.73;1.90;;;;;4.80;100899.00;;;;10294235;28;20322;-80
2023/11/24 23:27:31;;;;;;;8.70;1.80;;;;;4.80;100915.00;;;;10310624;28;20216;-80
2023/11/24 23:32:34;;;;;;;5.70;1.43;;;;;4.80;100920.00;;;;10307066;28;20211;-79
2023/11/24 23:37:36;;;;;;;5.60;1.27;;;;;4.80;100927.00;;;;10323554;28;20219;-80
2023/11/24 23:42:37;;;;;;;7.30;1.40;;;;;4.90;100923.00;;;;10319795;28;20219;-80
2023/11/24 23:47:38;;;;;;;5.60;1.33;;;;;4.80;100932.00;;;;10306648;28;20773;-80
2023/11/24 23:52:40;;;;;;;4.90;1.23;;;;;4.80;100935.00;;;;10311008;28;20224;-81
2023/11/24 23:57:41;;;;;;;6.37;1.97;;;;;4.80;100938.00;;;;10308559;28;20314;-79
